Terminal Aerodrome Forecast
Issued by NWS Rapid City, SD

Home | Current Version | Previous Version | Text Only | Print | Product List | Glossary Off
Versions: 1 2 3 4 5 6 7 8 9 10 11 12 13 14 15 16 17 18 19 20 21 22 23 24 25 26 27 28 29

000
FTUS43 KUNR 281631 AAB
TAFRAP
TAF AMD
KRAP 281631Z 2817/2912 VRB05KT P6SM -RA OVC040
      TEMPO 2817/2818 -RA OVC025
     FM281800 VRB05KT 5SM -RA OVC020
     FM290000 VRB05KT 5SM -RA OVC007
     FM290600 13007KT P6SM BKN015=

USA.gov is the U.S. government's official web portal to all federal, state and local government web resources and services.